Time;durP1;ratioP1;P1;durP2;ratioP2;P2;SDS_P1;SDS_P2;PMS_P1;PMS_P2;Temp;Humidity;BMP_temperature;BMP_pressure;BME280_temperature;BME280_humidity;BME280_pressure;Samples;Min_cycle;Max_cycle;Signal;HPM_P1;HPM_P2
2022/11/12 00:02:07;;;;;;;;;;;15.20;99.90;;;;;;5093110;28;19915;-76
2022/11/12 00:04:32;;;;;;;;;;;15.30;99.90;;;;;;5093499;28;19920;-76
2022/11/12 00:06:58;;;;;;;;;;;15.20;99.90;;;;;;5093330;28;19908;-76
2022/11/12 00:09:23;;;;;;;;;;;15.20;99.90;;;;;;5092956;28;19912;-76
2022/11/12 00:11:49;;;;;;;;;;;15.20;99.90;;;;;;5094098;28;19908;-75
2022/11/12 00:14:15;;;;;;;;;;;15.20;99.90;;;;;;5093742;28;20250;-76
2022/11/12 00:16:40;;;;;;;;;;;15.30;99.90;;;;;;5092643;28;19909;-76
2022/11/12 00:19:06;;;;;;;;;;;15.30;99.90;;;;;;5093375;28;20397;-77
2022/11/12 00:21:31;;;;;;;;;;;15.40;99.90;;;;;;5094076;28;19915;-76
2022/11/12 00:23:57;;;;;;;;;;;15.40;99.90;;;;;;5094123;28;20337;-76
2022/11/12 00:26:22;;;;;;;;;;;15.40;99.90;;;;;;5093334;28;19908;-76
2022/11/12 00:28:48;;;;;;;;;;;15.40;99.90;;;;;;5094403;28;19954;-76
2022/11/12 00:31:13;;;;;;;;;;;15.40;99.90;;;;;;5092785;28;19908;-76
2022/11/12 00:33:40;;;;;;;;;;;15.50;99.90;;;;;;5092564;28;19908;-75
2022/11/12 00:36:06;;;;;;;;;;;15.50;99.90;;;;;;5093191;28;19912;-76
2022/11/12 00:38:31;;;;;;;;;;;15.40;99.90;;;;;;5092630;28;19909;-75
2022/11/12 00:41:00;;;;;;;;;;;15.40;99.90;;;;;;5093751;28;19908;-76
2022/11/12 00:43:26;;;;;;;;;;;15.50;99.90;;;;;;5092133;28;19912;-76
2022/11/12 00:45:51;;;;;;;;;;;15.50;99.90;;;;;;5093696;28;20425;-75
2022/11/12 00:48:17;;;;;;;;;;;15.60;99.90;;;;;;5093033;28;19908;-75
2022/11/12 00:50:43;;;;;;;;;;;15.50;99.90;;;;;;5093439;28;20357;-76
2022/11/12 00:53:08;;;;;;;;;;;15.50;99.90;;;;;;5092923;28;19908;-76
2022/11/12 00:55:34;;;;;;;;;;;15.50;99.90;;;;;;5093375;28;20361;-76
2022/11/12 00:57:59;;;;;;;;;;;15.50;99.90;;;;;;5093265;28;19954;-76
2022/11/12 01:00:25;;;;;;;;;;;15.40;99.90;;;;;;5092929;28;19915;-76
2022/11/12 01:02:50;;;;;;;;;;;15.50;99.90;;;;;;5092398;28;19908;-75
2022/11/12 01:05:16;;;;;;;;;;;15.50;99.90;;;;;;5092922;28;19924;-76
2022/11/12 01:07:42;;;;;;;;;;;15.40;99.90;;;;;;5093115;28;20004;-76
2022/11/12 01:10:08;;;;;;;;;;;15.50;99.90;;;;;;5092384;28;19908;-76
2022/11/12 01:12:34;;;;;;;;;;;15.40;99.90;;;;;;5093487;28;19908;-75
2022/11/12 01:15:00;;;;;;;;;;;15.40;99.90;;;;;;5093205;28;20361;-74
2022/11/12 01:17:26;;;;;;;;;;;15.40;99.90;;;;;;5091451;28;19971;-75
2022/11/12 01:19:52;;;;;;;;;;;15.40;99.90;;;;;;5092719;28;19912;-75
2022/11/12 01:22:17;;;;;;;;;;;15.40;99.90;;;;;;5092627;28;19908;-76
2022/11/12 01:24:43;;;;;;;;;;;15.40;99.90;;;;;;5093140;28;19923;-76
2022/11/12 01:27:08;;;;;;;;;;;15.50;99.90;;;;;;5095362;28;19951;-75
2022/11/12 01:29:34;;;;;;;;;;;15.50;99.90;;;;;;5107438;28;19938;-75
2022/11/12 01:31:59;;;;;;;;;;;15.50;99.90;;;;;;5107283;28;19908;-75
2022/11/12 01:34:25;;;;;;;;;;;15.50;99.90;;;;;;5105187;28;20004;-76
2022/11/12 01:36:51;;;;;;;;;;;15.50;99.90;;;;;;5093195;28;19915;-75
2022/11/12 01:39:16;;;;;;;;;;;15.50;99.90;;;;;;5092647;28;19908;-75
2022/11/12 01:41:42;;;;;;;;;;;15.50;99.90;;;;;;5092832;28;20354;-75
2022/11/12 01:44:10;;;;;;;;;;;15.50;99.90;;;;;;5091694;28;19907;-76
2022/11/12 01:46:40;;;;;;;;;;;15.60;99.90;;;;;;5092727;28;19913;-75
2022/11/12 01:49:10;;;;;;;;;;;15.60;99.90;;;;;;5092518;28;19915;-76
2022/11/12 01:51:39;;;;;;;;;;;15.60;99.90;;;;;;5093058;28;20415;-76
2022/11/12 01:54:07;;;;;;;;;;;15.70;99.90;;;;;;5092689;28;19909;-76
2022/11/12 01:56:32;;;;;;;;;;;15.70;99.90;;;;;;5092175;28;19909;-75
2022/11/12 01:59:00;;;;;;;;;;;15.70;99.90;;;;;;5092879;28;20003;-75
2022/11/12 02:01:26;;;;;;;;;;;15.70;99.90;;;;;;5091712;28;19904;-75
2022/11/12 02:03:51;;;;;;;;;;;15.70;99.90;;;;;;5092581;28;19995;-75
2022/11/12 02:06:18;;;;;;;;;;;15.70;99.90;;;;;;5092320;28;20280;-76
2022/11/12 02:08:44;;;;;;;;;;;15.70;99.90;;;;;;5092597;28;19915;-76
2022/11/12 02:11:14;;;;;;;;;;;15.70;99.90;;;;;;5092045;28;19934;-76
2022/11/12 02:14:00;;;;;;;;;;;15.70;99.90;;;;;;5093288;28;19991;-76
2022/11/12 02:16:28;;;;;;;;;;;15.70;99.90;;;;;;5096113;28;19908;-76
2022/11/12 02:18:53;;;;;;;;;;;15.70;99.90;;;;;;5096453;28;19934;-76
2022/11/12 02:21:20;;;;;;;;;;;15.60;99.90;;;;;;5095816;28;19954;-76
2022/11/12 02:23:46;;;;;;;;;;;15.60;99.90;;;;;;5096256;28;20505;-76
2022/11/12 02:26:11;;;;;;;;;;;15.50;99.90;;;;;;5095950;28;19916;-76
2022/11/12 02:28:37;;;;;;;;;;;15.40;99.90;;;;;;5096472;28;19973;-76
2022/11/12 02:31:02;;;;;;;;;;;15.40;99.90;;;;;;5095969;28;19908;-76
2022/11/12 02:33:28;;;;;;;;;;;15.40;99.90;;;;;;5095670;28;19999;-76
2022/11/12 02:35:53;;;;;;;;;;;15.40;99.90;;;;;;5096250;28;20384;-75
2022/11/12 02:38:19;;;;;;;;;;;15.40;99.90;;;;;;5095412;28;20003;-76
2022/11/12 02:40:44;;;;;;;;;;;15.50;99.90;;;;;;5096052;28;19965;-76
2022/11/12 02:43:10;;;;;;;;;;;15.50;99.90;;;;;;5094310;28;19999;-77
2022/11/12 02:45:35;;;;;;;;;;;15.40;99.90;;;;;;5094613;28;19981;-76
2022/11/12 02:48:01;;;;;;;;;;;15.40;99.90;;;;;;5095669;28;20017;-76
2022/11/12 02:50:27;;;;;;;;;;;15.40;99.90;;;;;;5094983;28;19908;-75
2022/11/12 02:52:52;;;;;;;;;;;15.40;99.90;;;;;;5095969;28;19934;-75
2022/11/12 02:55:18;;;;;;;;;;;15.30;99.90;;;;;;5094038;28;20340;-75
2022/11/12 02:57:43;;;;;;;;;;;15.30;99.90;;;;;;5094383;28;19908;-75
2022/11/12 03:00:11;;;;;;;;;;;15.30;99.90;;;;;;5095647;28;20486;-76
2022/11/12 03:02:57;;;;;;;;;;;15.20;99.90;;;;;;5095682;28;19912;-75
2022/11/12 03:05:24;;;;;;;;;;;15.20;99.90;;;;;;5094954;28;20015;-75
2022/11/12 03:07:49;;;;;;;;;;;15.10;99.90;;;;;;5095837;28;20381;-75
2022/11/12 03:10:15;;;;;;;;;;;15.10;99.90;;;;;;5094922;28;19909;-76
2022/11/12 03:12:40;;;;;;;;;;;15.10;99.90;;;;;;5095398;28;20285;-75
2022/11/12 03:15:06;;;;;;;;;;;15.00;99.90;;;;;;5095894;28;19912;-75
2022/11/12 03:17:33;;;;;;;;;;;15.00;99.90;;;;;;5094773;28;20385;-75
2022/11/12 03:19:59;;;;;;;;;;;14.90;99.90;;;;;;5095473;28;20264;-75
2022/11/12 03:22:24;;;;;;;;;;;14.90;99.90;;;;;;5094732;28;19908;-76
2022/11/12 03:24:50;;;;;;;;;;;14.90;99.90;;;;;;5094722;28;19916;-76
2022/11/12 03:27:15;;;;;;;;;;;14.90;99.90;;;;;;5094688;28;20080;-76
2022/11/12 03:29:41;;;;;;;;;;;14.90;99.90;;;;;;5094936;28;19908;-76
2022/11/12 03:32:06;;;;;;;;;;;14.90;99.90;;;;;;5094735;28;20368;-74
2022/11/12 03:34:32;;;;;;;;;;;14.90;99.90;;;;;;5092949;28;20176;-74
2022/11/12 03:36:57;;;;;;;;;;;14.90;99.90;;;;;;5094734;28;19908;-75
2022/11/12 03:39:23;;;;;;;;;;;14.90;99.90;;;;;;5094330;28;19991;-75
2022/11/12 03:41:48;;;;;;;;;;;14.80;99.90;;;;;;5094689;28;19908;-76
2022/11/12 03:44:14;;;;;;;;;;;14.80;99.90;;;;;;5093897;28;19912;-77
2022/11/12 03:46:40;;;;;;;;;;;14.90;99.90;;;;;;5094587;28;19908;-75
2022/11/12 03:49:05;;;;;;;;;;;14.80;99.90;;;;;;5094726;28;19912;-76
2022/11/12 03:51:31;;;;;;;;;;;14.80;99.90;;;;;;5094183;28;19915;-76
2022/11/12 03:53:56;;;;;;;;;;;14.80;99.90;;;;;;5094457;28;19935;-75
2022/11/12 03:56:22;;;;;;;;;;;14.80;99.90;;;;;;5094144;28;20384;-77
2022/11/12 03:58:47;;;;;;;;;;;14.90;99.90;;;;;;5094286;28;19997;-74
2022/11/12 04:01:13;;;;;;;;;;;14.90;99.90;;;;;;5093957;28;19912;-76
2022/11/12 04:03:39;;;;;;;;;;;14.90;99.90;;;;;;5094071;28;19955;-75
2022/11/12 04:08:53;;;;;;;;;;;14.90;99.90;;;;;;5083551;28;19915;-76
2022/11/12 04:11:19;;;;;;;;;;;14.90;99.90;;;;;;5093462;28;20265;-76
2022/11/12 04:13:46;;;;;;;;;;;14.90;99.90;;;;;;5094018;28;20010;-75
2022/11/12 04:21:50;;;;;;;;;;;15.00;99.90;;;;;;5094278;28;19993;-76
2022/11/12 04:27:30;;;;;;;;;;;15.00;99.90;;;;;;5091073;28;20388;-76
2022/11/12 04:32:45;;;;;;;;;;;15.00;99.90;;;;;;5093909;28;20260;-75
2022/11/12 04:35:12;;;;;;;;;;;15.00;99.90;;;;;;5093954;28;19908;-75
2022/11/12 04:37:43;;;;;;;;;;;15.00;99.90;;;;;;5093104;28;19969;-75
2022/11/12 04:45:42;;;;;;;;;;;15.10;99.90;;;;;;5093155;28;19977;-75
2022/11/12 04:48:08;;;;;;;;;;;15.10;99.90;;;;;;5093919;28;19915;-75
2022/11/12 04:50:34;;;;;;;;;;;15.10;99.90;;;;;;5093128;28;19908;-75
2022/11/12 04:52:59;;;;;;;;;;;15.10;99.90;;;;;;5093426;28;19908;-74
2022/11/12 04:55:25;;;;;;;;;;;15.10;99.90;;;;;;5093445;28;19908;-76
2022/11/12 04:57:50;;;;;;;;;;;15.10;99.90;;;;;;5126197;27;20361;-75
2022/11/12 05:00:16;;;;;;;;;;;15.10;99.90;;;;;;5093521;28;19912;-75
2022/11/12 05:02:41;;;;;;;;;;;15.10;99.90;;;;;;5092824;28;20250;-75
2022/11/12 05:05:07;;;;;;;;;;;15.10;99.90;;;;;;5092041;28;20379;-74
2022/11/12 05:07:35;;;;;;;;;;;15.10;99.90;;;;;;5092257;28;20312;-75
2022/11/12 05:10:00;;;;;;;;;;;15.10;99.90;;;;;;5093557;28;19912;-75
2022/11/12 05:12:26;;;;;;;;;;;15.10;99.90;;;;;;5092722;28;19919;-76
2022/11/12 05:14:51;;;;;;;;;;;15.00;99.90;;;;;;5093077;28;20369;-75
2022/11/12 05:17:17;;;;;;;;;;;15.10;99.90;;;;;;5093281;28;20322;-74
2022/11/12 05:19:43;;;;;;;;;;;15.10;99.90;;;;;;5092694;28;19914;-75
2022/11/12 05:22:09;;;;;;;;;;;15.10;99.90;;;;;;5093268;28;19908;-74
2022/11/12 05:24:36;;;;;;;;;;;15.10;99.90;;;;;;5092363;28;19913;-74
2022/11/12 05:27:01;;;;;;;;;;;15.00;99.90;;;;;;5093605;28;19918;-74
2022/11/12 05:29:27;;;;;;;;;;;15.00;99.90;;;;;;5092568;28;19999;-75
2022/11/12 05:31:53;;;;;;;;;;;15.10;99.90;;;;;;5092724;28;19908;-74
2022/11/12 05:34:19;;;;;;;;;;;15.00;99.90;;;;;;5093309;28;19908;-76
2022/11/12 05:36:44;;;;;;;;;;;15.00;99.90;;;;;;5092427;28;19960;-75
2022/11/12 05:39:10;;;;;;;;;;;15.10;99.90;;;;;;5092857;28;20376;-75
2022/11/12 05:41:35;;;;;;;;;;;15.00;99.90;;;;;;5095833;28;20050;-74
2022/11/12 05:44:01;;;;;;;;;;;15.00;99.90;;;;;;5105245;28;19914;-74
2022/11/12 05:46:26;;;;;;;;;;;15.00;99.90;;;;;;5094894;28;20373;-76
2022/11/12 05:48:52;;;;;;;;;;;15.00;99.90;;;;;;5094073;28;20376;-75
2022/11/12 05:51:18;;;;;;;;;;;15.00;99.90;;;;;;5097207;28;20254;-76
2022/11/12 05:53:43;;;;;;;;;;;15.00;99.90;;;;;;5096210;28;19919;-75
2022/11/12 05:56:09;;;;;;;;;;;15.00;99.90;;;;;;5096749;28;19915;-76
2022/11/12 05:58:35;;;;;;;;;;;15.00;99.90;;;;;;5096016;28;19914;-76
2022/11/12 06:01:01;;;;;;;;;;;15.00;99.90;;;;;;5096671;28;19940;-77
2022/11/12 06:03:26;;;;;;;;;;;15.00;99.90;;;;;;5094988;28;19912;-77
2022/11/12 06:05:52;;;;;;;;;;;15.00;99.90;;;;;;5096624;28;19928;-76
2022/11/12 06:08:18;;;;;;;;;;;15.00;99.90;;;;;;5096576;28;19962;-74
2022/11/12 06:10:47;;;;;;;;;;;14.90;99.90;;;;;;5096095;28;19908;-75
2022/11/12 06:13:13;;;;;;;;;;;14.90;99.90;;;;;;5096222;28;19915;-75
2022/11/12 06:15:39;;;;;;;;;;;14.90;99.90;;;;;;5096082;28;19908;-75
2022/11/12 06:18:05;;;;;;;;;;;14.90;99.90;;;;;;5096147;28;20330;-75
2022/11/12 06:20:30;;;;;;;;;;;14.90;99.90;;;;;;5095703;28;19940;-74
2022/11/12 06:22:56;;;;;;;;;;;14.90;99.90;;;;;;5096182;28;19916;-76
2022/11/12 06:25:21;;;;;;;;;;;14.90;99.90;;;;;;5096253;28;19922;-77
2022/11/12 06:27:47;;;;;;;;;;;14.90;99.90;;;;;;5094584;28;19908;-74
2022/11/12 06:30:13;;;;;;;;;;;14.90;99.90;;;;;;5096303;28;20269;-76
2022/11/12 06:32:38;;;;;;;;;;;14.90;99.90;;;;;;5095772;28;19908;-75
2022/11/12 06:35:04;;;;;;;;;;;14.90;99.90;;;;;;5099489;28;19915;-76
2022/11/12 06:37:30;;;;;;;;;;;14.90;99.90;;;;;;5106057;28;19912;-77
2022/11/12 06:39:55;;;;;;;;;;;14.80;99.90;;;;;;5096640;28;20367;-76
2022/11/12 06:42:21;;;;;;;;;;;14.80;99.90;;;;;;5094755;28;19908;-76
2022/11/12 06:44:46;;;;;;;;;;;14.80;99.90;;;;;;5095386;28;19930;-76
2022/11/12 06:47:12;;;;;;;;;;;14.70;99.90;;;;;;5094934;28;19908;-76
2022/11/12 06:49:38;;;;;;;;;;;14.70;99.90;;;;;;5094117;28;20343;-75
2022/11/12 06:52:03;;;;;;;;;;;14.70;99.90;;;;;;5095526;28;19974;-75
2022/11/12 06:54:29;;;;;;;;;;;14.70;99.90;;;;;;5094947;28;19915;-75
2022/11/12 06:56:54;;;;;;;;;;;14.70;99.90;;;;;;5094514;28;19908;-75
2022/11/12 06:59:20;;;;;;;;;;;14.70;99.90;;;;;;5095729;28;19908;-75
2022/11/12 07:01:45;;;;;;;;;;;14.70;99.90;;;;;;5093497;28;19908;-76
2022/11/12 07:04:11;;;;;;;;;;;14.70;99.90;;;;;;5074940;28;19920;-75
2022/11/12 07:06:37;;;;;;;;;;;14.60;99.90;;;;;;5074548;28;19913;-76
2022/11/12 07:09:03;;;;;;;;;;;14.60;99.90;;;;;;5075398;28;19916;-75
2022/11/12 07:11:29;;;;;;;;;;;14.60;99.90;;;;;;5074600;28;19931;-75
2022/11/12 07:13:54;;;;;;;;;;;14.60;99.90;;;;;;5074925;28;19908;-75
2022/11/12 07:16:21;;;;;;;;;;;14.60;99.90;;;;;;5075171;28;19909;-74
2022/11/12 07:18:47;;;;;;;;;;;14.60;99.90;;;;;;5074606;28;20487;-75
2022/11/12 07:21:14;;;;;;;;;;;14.60;99.90;;;;;;5075033;28;20400;-75
2022/11/12 07:23:39;;;;;;;;;;;14.60;99.90;;;;;;5074626;28;19948;-75
2022/11/12 07:26:06;;;;;;;;;;;14.60;99.90;;;;;;5074791;28;19989;-76
2022/11/12 07:28:32;;;;;;;;;;;14.60;99.90;;;;;;5093109;28;19916;-75
2022/11/12 07:30:59;;;;;;;;;;;14.70;99.90;;;;;;5095194;28;19915;-75
2022/11/12 07:33:25;;;;;;;;;;;14.70;99.90;;;;;;5095144;28;19908;-75
2022/11/12 07:36:10;;;;;;;;;;;14.70;99.90;;;;;;5094175;28;19973;-74
2022/11/12 07:38:37;;;;;;;;;;;14.70;99.90;;;;;;5093926;28;20288;-75
2022/11/12 07:41:04;;;;;;;;;;;14.60;99.90;;;;;;5094995;28;20003;-75
2022/11/12 07:43:30;;;;;;;;;;;14.70;99.90;;;;;;5094232;28;19919;-76
2022/11/12 07:46:00;;;;;;;;;;;14.60;99.90;;;;;;5094799;28;19916;-75
2022/11/12 07:48:25;;;;;;;;;;;14.60;99.90;;;;;;5094633;28;20262;-75
2022/11/12 07:50:51;;;;;;;;;;;14.70;99.90;;;;;;5127154;27;19920;-75
2022/11/12 07:53:17;;;;;;;;;;;14.60;99.90;;;;;;5095055;28;19908;-75
2022/11/12 07:55:42;;;;;;;;;;;14.60;99.90;;;;;;5094132;28;20326;-76
2022/11/12 07:58:08;;;;;;;;;;;14.60;99.90;;;;;;5093344;28;19908;-76
2022/11/12 08:00:33;;;;;;;;;;;14.60;99.90;;;;;;5093821;28;20003;-77
2022/11/12 08:03:00;;;;;;;;;;;14.60;99.90;;;;;;5094747;28;20269;-76
2022/11/12 08:05:26;;;;;;;;;;;14.60;99.90;;;;;;5094941;28;19920;-75
2022/11/12 08:07:53;;;;;;;;;;;14.50;99.90;;;;;;5093667;28;19915;-75
2022/11/12 08:10:19;;;;;;;;;;;14.60;99.90;;;;;;5094684;28;19943;-76
2022/11/12 08:12:44;;;;;;;;;;;14.60;99.90;;;;;;5093194;28;19955;-76
2022/11/12 08:15:10;;;;;;;;;;;14.60;99.90;;;;;;5093671;28;19908;-75
2022/11/12 08:17:39;;;;;;;;;;;14.60;99.90;;;;;;5093588;28;19924;-76
2022/11/12 08:20:05;;;;;;;;;;;14.60;99.90;;;;;;5093786;28;19943;-77
2022/11/12 08:22:30;;;;;;;;;;;14.60;99.90;;;;;;5093833;28;19996;-76
2022/11/12 08:24:56;;;;;;;;;;;14.60;99.90;;;;;;5093224;28;20075;-75
2022/11/12 08:27:21;;;;;;;;;;;14.60;99.90;;;;;;5093636;28;19908;-76
2022/11/12 08:29:47;;;;;;;;;;;14.60;99.90;;;;;;5093307;28;20381;-75
2022/11/12 08:32:13;;;;;;;;;;;14.50;99.90;;;;;;5127062;27;19909;-76
2022/11/12 08:34:40;;;;;;;;;;;14.50;99.90;;;;;;5093200;28;19991;-76
2022/11/12 08:37:06;;;;;;;;;;;14.50;99.90;;;;;;5093673;28;19912;-75
2022/11/12 08:39:31;;;;;;;;;;;14.50;99.90;;;;;;5093216;28;19916;-77
2022/11/12 08:41:57;;;;;;;;;;;14.50;99.90;;;;;;5093376;28;20002;-74
2022/11/12 08:44:22;;;;;;;;;;;14.40;99.90;;;;;;5093419;28;19922;-76
2022/11/12 08:46:49;;;;;;;;;;;14.40;99.90;;;;;;5093143;28;19908;-77
2022/11/12 08:49:14;;;;;;;;;;;14.40;99.90;;;;;;5092957;28;19961;-75
2022/11/12 08:51:40;;;;;;;;;;;14.40;99.90;;;;;;5092151;28;20360;-77
2022/11/12 08:54:06;;;;;;;;;;;14.40;99.90;;;;;;5093881;28;19912;-75
2022/11/12 08:56:32;;;;;;;;;;;14.40;99.90;;;;;;5092122;28;20284;-77
2022/11/12 08:58:58;;;;;;;;;;;14.30;99.90;;;;;;5092727;28;20421;-75
2022/11/12 09:01:24;;;;;;;;;;;14.30;99.90;;;;;;5092999;28;19999;-75
2022/11/12 09:03:49;;;;;;;;;;;14.30;99.90;;;;;;5091627;28;19912;-76
2022/11/12 09:06:15;;;;;;;;;;;14.30;99.90;;;;;;5092969;28;19920;-78
2022/11/12 09:08:41;;;;;;;;;;;14.20;99.90;;;;;;5092597;28;20349;-76
2022/11/12 09:11:06;;;;;;;;;;;14.20;99.90;;;;;;5091316;28;19912;-76
2022/11/12 09:13:32;;;;;;;;;;;14.20;99.90;;;;;;5092721;28;19915;-76
2022/11/12 09:16:02;;;;;;;;;;;14.10;99.90;;;;;;5092659;28;19951;-76
2022/11/12 09:18:28;;;;;;;;;;;14.10;99.90;;;;;;5093244;28;19955;-76
2022/11/12 09:20:57;;;;;;;;;;;14.10;99.90;;;;;;5092507;28;19943;-77
2022/11/12 09:23:23;;;;;;;;;;;14.10;99.90;;;;;;5092288;28;19912;-76
2022/11/12 09:25:48;;;;;;;;;;;14.10;99.90;;;;;;5092475;28;19917;-76
2022/11/12 09:28:15;;;;;;;;;;;14.00;99.90;;;;;;5091787;28;19928;-76
2022/11/12 09:30:42;;;;;;;;;;;14.00;99.90;;;;;;5092443;28;19934;-76
2022/11/12 09:33:08;;;;;;;;;;;14.00;99.90;;;;;;5092660;28;20310;-75
2022/11/12 09:35:34;;;;;;;;;;;14.00;99.90;;;;;;5092814;28;19972;-76
2022/11/12 09:37:59;;;;;;;;;;;14.00;99.90;;;;;;5094323;28;20357;-77
2022/11/12 09:40:45;;;;;;;;;;;14.00;99.90;;;;;;5092694;28;19915;-76
2022/11/12 09:43:17;;;;;;;;;;;14.00;99.90;;;;;;5093089;28;20003;-76
2022/11/12 09:45:43;;;;;;;;;;;14.00;99.90;;;;;;5092494;28;19969;-76
2022/11/12 09:48:10;;;;;;;;;;;14.10;99.90;;;;;;5092918;28;19908;-75
2022/11/12 09:50:39;;;;;;;;;;;14.10;99.90;;;;;;5090985;28;19908;-78
2022/11/12 09:53:12;;;;;;;;;;;14.10;99.90;;;;;;5092388;28;19930;-74
2022/11/12 09:55:42;;;;;;;;;;;14.10;99.90;;;;;;5092605;28;19908;-75
2022/11/12 09:58:10;;;;;;;;;;;14.10;99.90;;;;;;5092315;28;20349;-74
2022/11/12 10:00:36;;;;;;;;;;;14.10;99.90;;;;;;5091921;28;19924;-77
2022/11/12 10:03:13;;;;;;;;;;;14.10;99.90;;;;;;5091472;28;19912;-76
2022/11/12 10:05:47;;;;;;;;;;;14.20;99.90;;;;;;5091312;28;19920;-76
2022/11/12 10:08:16;;;;;;;;;;;14.20;99.90;;;;;;5092804;28;19908;-76
2022/11/12 10:10:49;;;;;;;;;;;14.20;99.90;;;;;;5091275;28;20357;-75
2022/11/12 10:13:38;;;;;;;;;;;14.20;99.90;;;;;;5092253;28;20010;-75
2022/11/12 10:19:13;;;;;;;;;;;14.20;99.90;;;;;;5092157;28;20305;-75
2022/11/12 10:21:44;;;;;;;;;;;14.30;99.90;;;;;;5091989;28;19915;-75
2022/11/12 10:24:10;;;;;;;;;;;14.30;99.90;;;;;;5092739;28;20381;-76
2022/11/12 10:26:36;;;;;;;;;;;14.30;99.90;;;;;;5092536;28;19923;-74
2022/11/12 10:29:02;;;;;;;;;;;14.30;99.90;;;;;;5091985;28;19915;-75
2022/11/12 10:31:27;;;;;;;;;;;14.30;99.90;;;;;;5091184;28;19912;-75
2022/11/12 10:34:06;;;;;;;;;;;14.30;99.90;;;;;;5091917;28;19931;-75
2022/11/12 10:36:37;;;;;;;;;;;14.30;99.90;;;;;;5102201;28;19908;-76
2022/11/12 10:39:02;;;;;;;;;;;14.40;99.90;;;;;;5098596;28;19908;-75
2022/11/12 10:41:32;;;;;;;;;;;14.40;99.90;;;;;;5095814;28;19908;-75
2022/11/12 10:44:05;;;;;;;;;;;14.30;99.90;;;;;;5095484;28;19955;-75
2022/11/12 10:46:30;;;;;;;;;;;14.30;99.90;;;;;;5095612;28;20467;-75
2022/11/12 10:48:57;;;;;;;;;;;14.30;99.90;;;;;;5095090;28;19947;-76
2022/11/12 10:51:46;;;;;;;;;;;14.40;99.90;;;;;;5095858;28;19949;-75
2022/11/12 10:54:19;;;;;;;;;;;14.40;99.90;;;;;;5097252;27;19908;-75
2022/11/12 10:56:45;;;;;;;;;;;14.50;99.90;;;;;;5095499;28;20281;-76
2022/11/12 10:59:15;;;;;;;;;;;14.50;99.90;;;;;;5095696;28;19908;-76
2022/11/12 11:01:41;;;;;;;;;;;14.50;99.90;;;;;;5095805;28;19908;-75
2022/11/12 11:04:21;;;;;;;;;;;14.50;99.90;;;;;;5095303;28;19920;-75
2022/11/12 11:06:47;;;;;;;;;;;14.40;99.90;;;;;;5097033;28;20007;-76
2022/11/12 11:09:12;;;;;;;;;;;14.40;99.90;;;;;;5095226;28;19969;-75
2022/11/12 11:11:47;;;;;;;;;;;14.40;99.90;;;;;;5095389;28;19916;-75
2022/11/12 11:14:22;;;;;;;;;;;14.50;99.90;;;;;;5095928;28;20048;-76
2022/11/12 11:16:48;;;;;;;;;;;14.50;99.90;;;;;;5094874;28;19908;-75
2022/11/12 11:19:14;;;;;;;;;;;14.50;99.90;;;;;;5095280;28;19908;-75
2022/11/12 11:21:46;;;;;;;;;;;14.50;99.90;;;;;;5093939;28;19915;-75
2022/11/12 11:24:17;;;;;;;;;;;14.50;99.90;;;;;;5095151;28;19915;-76
2022/11/12 11:26:55;;;;;;;;;;;14.50;99.90;;;;;;5094738;28;19916;-76
2022/11/12 11:29:30;;;;;;;;;;;14.50;99.90;;;;;;5095297;28;19977;-76
2022/11/12 11:32:01;;;;;;;;;;;14.50;99.90;;;;;;5094462;28;19947;-76
2022/11/12 11:34:48;;;;;;;;;;;14.50;99.90;;;;;;5095043;28;19912;-76
2022/11/12 11:37:20;;;;;;;;;;;14.50;99.90;;;;;;5095115;28;19946;-76
2022/11/12 11:40:06;;;;;;;;;;;14.50;99.90;;;;;;5094154;28;20369;-76
2022/11/12 11:42:37;;;;;;;;;;;14.50;99.90;;;;;;5095411;27;19961;-76
2022/11/12 11:45:24;;;;;;;;;;;14.50;99.90;;;;;;5094129;28;19916;-75
2022/11/12 11:47:53;;;;;;;;;;;14.50;99.90;;;;;;5093697;28;19909;-76
2022/11/12 11:50:24;;;;;;;;;;;14.60;99.90;;;;;;5094646;28;19908;-76
2022/11/12 11:53:08;;;;;;;;;;;14.60;99.90;;;;;;5094186;28;19931;-76
2022/11/12 11:55:46;;;;;;;;;;;14.70;99.90;;;;;;5095084;28;20010;-77
2022/11/12 11:58:18;;;;;;;;;;;14.60;99.90;;;;;;5094743;28;19914;-76
2022/11/12 12:00:46;;;;;;;;;;;14.60;99.90;;;;;;5094431;28;19938;-75
2022/11/12 12:03:11;;;;;;;;;;;14.60;99.90;;;;;;5094487;28;19912;-75
2022/11/12 12:05:49;;;;;;;;;;;14.60;99.90;;;;;;5094281;28;20392;-76
2022/11/12 12:08:17;;;;;;;;;;;14.60;99.90;;;;;;5094241;28;20343;-75
2022/11/12 12:10:55;;;;;;;;;;;14.70;99.90;;;;;;5094134;28;19915;-76
2022/11/12 12:13:28;;;;;;;;;;;14.70;99.90;;;;;;5094171;28;20284;-76
2022/11/12 12:16:03;;;;;;;;;;;14.70;99.90;;;;;;5093607;28;19908;-77
2022/11/12 12:18:28;;;;;;;;;;;14.70;99.90;;;;;;5093900;28;19908;-75
2022/11/12 12:20:57;;;;;;;;;;;14.80;99.90;;;;;;5093238;28;19953;-75
2022/11/12 12:23:32;;;;;;;;;;;14.80;99.90;;;;;;5094076;28;19912;-76
2022/11/12 12:26:00;;;;;;;;;;;14.80;99.90;;;;;;5093426;28;19916;-76
2022/11/12 12:28:31;;;;;;;;;;;14.80;99.90;;;;;;5092782;28;19912;-75
2022/11/12 12:31:00;;;;;;;;;;;14.80;99.90;;;;;;5092116;28;19961;-76
2022/11/12 12:33:44;;;;;;;;;;;14.80;99.90;;;;;;5092653;28;19999;-76
2022/11/12 12:36:11;;;;;;;;;;;14.80;99.90;;;;;;5091641;28;19908;-75
2022/11/12 12:38:43;;;;;;;;;;;14.80;99.90;;;;;;5093458;28;20261;-77
2022/11/12 12:41:29;;;;;;;;;;;14.80;99.90;;;;;;5093211;28;19908;-77
2022/11/12 12:43:58;;;;;;;;;;;14.70;99.90;;;;;;5093073;28;19915;-77
2022/11/12 12:46:27;;;;;;;;;;;14.70;99.90;;;;;;5093646;28;20015;-77
2022/11/12 12:48:54;;;;;;;;;;;14.80;99.90;;;;;;5093065;28;19915;-76
2022/11/12 12:51:20;;;;;;;;;;;14.70;99.90;;;;;;5093507;28;20003;-77
2022/11/12 12:53:46;;;;;;;;;;;14.80;99.90;;;;;;5093291;28;19908;-77
2022/11/12 12:56:11;;;;;;;;;;;14.80;99.90;;;;;;5093150;28;20066;-78
2022/11/12 12:58:42;;;;;;;;;;;14.90;99.90;;;;;;5092636;28;19908;-76
2022/11/12 13:01:12;;;;;;;;;;;14.90;99.90;;;;;;5091662;28;20406;-76
2022/11/12 13:03:43;;;;;;;;;;;14.90;99.90;;;;;;5075412;28;19908;-76
2022/11/12 13:06:21;;;;;;;;;;;14.90;99.90;;;;;;5090834;28;20569;-76
2022/11/12 13:08:58;;;;;;;;;;;14.90;99.90;;;;;;5093251;28;19923;-76
2022/11/12 13:14:58;;;;;;;;;;;15.00;99.90;;;;;;5092987;28;19915;-77
2022/11/12 13:17:44;;;;;;;;;;;15.00;99.90;;;;;;5050484;28;19909;-75
2022/11/12 13:20:26;;;;;;;;;;;15.10;99.90;;;;;;5049663;28;19909;-76
2022/11/12 13:22:51;;;;;;;;;;;15.10;99.90;;;;;;5050356;28;20375;-76
2022/11/12 13:25:17;;;;;;;;;;;15.10;99.90;;;;;;5050573;28;19955;-74
2022/11/12 13:27:43;;;;;;;;;;;15.10;99.90;;;;;;5050467;28;20394;-75
2022/11/12 13:30:19;;;;;;;;;;;15.10;99.90;;;;;;5049937;28;20370;-75
2022/11/12 13:32:45;;;;;;;;;;;15.20;99.90;;;;;;5050571;28;19913;-76
2022/11/12 13:35:10;;;;;;;;;;;15.20;99.90;;;;;;5050210;28;20390;-76
2022/11/12 13:37:41;;;;;;;;;;;15.20;99.90;;;;;;5050684;28;20318;-75
2022/11/12 13:40:10;;;;;;;;;;;15.20;99.90;;;;;;5050196;28;19958;-76
2022/11/12 13:42:48;;;;;;;;;;;15.20;99.90;;;;;;5050626;28;19908;-76
2022/11/12 13:45:15;;;;;;;;;;;15.20;99.90;;;;;;5033397;28;19975;-77
2022/11/12 13:47:41;;;;;;;;;;;15.20;99.90;;;;;;5050509;28;20358;-75
2022/11/12 13:50:08;;;;;;;;;;;15.10;99.90;;;;;;5050147;28;19939;-76
2022/11/12 13:52:34;;;;;;;;;;;15.10;99.90;;;;;;5058245;28;19958;-75
2022/11/12 13:55:01;;;;;;;;;;;15.20;99.90;;;;;;5072062;28;19923;-75
2022/11/12 13:57:28;;;;;;;;;;;15.20;99.90;;;;;;5072825;28;19913;-78
2022/11/12 14:00:09;;;;;;;;;;;15.10;99.90;;;;;;5071086;28;20369;-77
2022/11/12 14:02:36;;;;;;;;;;;15.20;99.90;;;;;;5071600;28;19916;-77
2022/11/12 14:05:02;;;;;;;;;;;15.20;99.90;;;;;;5070830;28;20457;-77
2022/11/12 14:07:46;;;;;;;;;;;15.20;99.90;;;;;;5073002;28;19919;-76
2022/11/12 14:10:27;;;;;;;;;;;15.20;99.90;;;;;;5072712;28;20354;-76
2022/11/12 14:13:05;;;;;;;;;;;15.10;99.90;;;;;;5076089;28;19909;-76
2022/11/12 14:15:40;;;;;;;;;;;15.00;99.90;;;;;;5076453;28;19920;-76
2022/11/12 14:18:15;;;;;;;;;;;15.00;99.90;;;;;;5074790;28;19956;-76
2022/11/12 14:20:41;;;;;;;;;;;14.90;99.90;;;;;;5076619;28;19908;-76
2022/11/12 14:23:15;;;;;;;;;;;14.80;99.90;;;;;;5075637;28;20308;-76
2022/11/12 14:25:49;;;;;;;;;;;14.70;99.90;;;;;;5076166;28;20385;-76
2022/11/12 14:28:24;;;;;;;;;;;14.60;99.90;;;;;;5075773;28;19999;-76
2022/11/12 14:30:49;;;;;;;;;;;14.60;99.90;;;;;;5076136;28;19908;-76
2022/11/12 14:33:19;;;;;;;;;;;14.60;99.90;;;;;;5076066;28;19909;-77
2022/11/12 14:35:46;;;;;;;;;;;14.60;99.90;;;;;;5075962;28;19916;-76
2022/11/12 14:38:18;;;;;;;;;;;14.50;99.90;;;;;;5075347;28;20285;-76
2022/11/12 14:40:43;;;;;;;;;;;14.50;99.90;;;;;;5076108;28;19915;-76
2022/11/12 14:43:20;;;;;;;;;;;14.50;99.90;;;;;;5075378;28;19909;-75
2022/11/12 14:45:49;;;;;;;;;;;14.50;99.90;;;;;;5075707;28;19923;-75
2022/11/12 14:48:15;;;;;;;;;;;14.40;99.90;;;;;;5075120;28;19904;-76